Time;durP1;ratioP1;P1;durP2;ratioP2;P2;SDS_P1;SDS_P2;PMS_P1;PMS_P2;Temp;Humidity;BMP_temperature;BMP_pressure;BME280_temperature;BME280_humidity;BME280_pressure;Samples;Min_cycle;Max_cycle;Signal;HPM_P1;HPM_P2
2021/07/07 00:03:12;;;;;;;1.60;1.15;;;21.50;70.40;;;;;;10420242;28;20111;-55
2021/07/07 00:08:13;;;;;;;1.70;0.90;;;21.50;70.40;;;;;;10406785;28;20041;-56
2021/07/07 00:13:14;;;;;;;1.25;0.90;;;21.50;70.40;;;;;;10419009;28;20033;-55
2021/07/07 00:18:14;;;;;;;3.70;1.38;;;21.50;70.30;;;;;;10408449;28;20045;-56
2021/07/07 00:23:15;;;;;;;1.77;1.02;;;21.50;70.30;;;;;;10424000;28;20037;-55
2021/07/07 00:28:16;;;;;;;1.17;1.00;;;21.50;70.30;;;;;;10416314;28;20037;-54
2021/07/07 00:33:18;;;;;;;3.10;0.88;;;21.50;70.30;;;;;;10419188;28;20034;-53
2021/07/07 00:38:18;;;;;;;1.63;0.70;;;21.50;70.20;;;;;;10418414;28;20057;-56
2021/07/07 00:43:19;;;;;;;1.98;1.15;;;21.50;70.20;;;;;;10418676;28;20076;-55
2021/07/07 00:48:20;;;;;;;1.35;0.95;;;21.50;70.30;;;;;;10419051;28;20022;-56
2021/07/07 00:53:20;;;;;;;1.55;1.00;;;21.50;70.20;;;;;;10418601;28;20053;-55
2021/07/07 00:58:24;;;;;;;2.50;1.17;;;21.50;70.20;;;;;;10418504;28;20034;-56
2021/07/07 01:03:24;;;;;;;2.35;0.95;;;21.50;70.10;;;;;;10417613;28;20064;-55
2021/07/07 01:08:25;;;;;;;1.30;0.90;;;21.50;70.10;;;;;;10416971;28;20068;-55
2021/07/07 01:13:26;;;;;;;1.90;1.02;;;21.50;70.20;;;;;;10417035;28;20065;-55
2021/07/07 01:18:26;;;;;;;2.78;1.23;;;21.50;70.20;;;;;;10417273;28;20033;-56
2021/07/07 01:23:28;;;;;;;1.35;0.85;;;21.50;70.10;;;;;;10423774;28;20533;-53
2021/07/07 01:28:31;;;;;;;1.20;0.82;;;21.50;70.10;;;;;;10417793;28;20025;-55
2021/07/07 01:33:32;;;;;;;1.38;0.70;;;21.50;70.10;;;;;;10404921;28;20030;-56
2021/07/07 01:38:32;;;;;;;2.55;0.95;;;21.50;70.10;;;;;;10406622;28;20112;-55
2021/07/07 01:43:33;;;;;;;1.60;1.08;;;21.40;70.00;;;;;;10416611;28;20447;-55
2021/07/07 01:48:34;;;;;;;1.05;0.90;;;21.40;70.00;;;;;;10416948;28;20060;-54
2021/07/07 01:53:34;;;;;;;1.30;0.95;;;21.40;70.00;;;;;;10416667;28;20065;-56
2021/07/07 01:58:35;;;;;;;1.35;0.73;;;21.40;70.00;;;;;;10416531;28;20425;-55
2021/07/07 02:03:36;;;;;;;1.40;1.08;;;21.40;69.90;;;;;;10402042;28;20486;-54
2021/07/07 02:08:37;;;;;;;1.08;0.88;;;21.40;69.90;;;;;;10416127;28;20437;-55
2021/07/07 02:13:38;;;;;;;1.88;0.80;;;21.40;69.90;;;;;;10431252;28;20022;-55
2021/07/07 02:18:38;;;;;;;2.05;0.90;;;21.40;69.90;;;;;;10415701;28;20034;-54
2021/07/07 02:23:39;;;;;;;2.65;0.90;;;21.40;69.80;;;;;;10418028;28;20056;-54
2021/07/07 02:28:40;;;;;;;1.50;1.00;;;21.40;69.90;;;;;;10397431;28;20036;-56
2021/07/07 02:33:40;;;;;;;0.70;0.60;;;21.40;69.80;;;;;;10413560;28;20108;-54
2021/07/07 02:38:41;;;;;;;1.15;0.70;;;21.40;69.80;;;;;;10415462;28;20105;-54
2021/07/07 02:43:42;;;;;;;1.48;1.05;;;21.40;69.80;;;;;;10414283;28;20155;-54
2021/07/07 02:48:42;;;;;;;1.77;0.88;;;21.40;69.80;;;;;;10413514;28;20033;-54
2021/07/07 02:53:43;;;;;;;1.33;0.88;;;21.30;69.70;;;;;;10414415;28;20417;-56
2021/07/07 02:58:44;;;;;;;1.55;0.90;;;21.30;70.30;;;;;;10414471;28;20091;-56
2021/07/07 03:03:44;;;;;;;0.95;0.60;;;21.30;69.70;;;;;;10413398;28;20068;-55
2021/07/07 03:08:45;;;;;;;3.10;1.00;;;21.30;69.70;;;;;;10414225;28;20099;-54
2021/07/07 03:13:46;;;;;;;1.83;1.17;;;21.30;69.60;;;;;;10398923;28;20472;-53
2021/07/07 03:18:46;;;;;;;2.47;1.20;;;21.30;69.70;;;;;;10399378;28;20065;-55
2021/07/07 03:23:48;;;;;;;1.50;0.85;;;21.30;69.70;;;;;;10413763;28;20068;-55
2021/07/07 03:28:48;;;;;;;2.15;0.77;;;21.30;69.70;;;;;;10397832;28;20100;-54
2021/07/07 03:33:49;;;;;;;1.70;1.08;;;21.30;69.70;;;;;;10408179;28;20117;-56
2021/07/07 03:38:50;;;;;;;1.08;0.73;;;21.30;69.70;;;;;;10421982;28;20036;-53
2021/07/07 03:43:50;;;;;;;2.70;1.10;;;21.30;69.60;;;;;;10421680;28;20481;-56
2021/07/07 03:48:51;;;;;;;1.88;0.95;;;21.30;69.70;;;;;;10403933;28;20385;-57
2021/07/07 03:53:52;;;;;;;1.05;0.52;;;21.30;69.70;;;;;;10420891;28;20041;-56
2021/07/07 03:58:52;;;;;;;0.82;0.70;;;21.30;69.70;;;;;;10420763;28;20108;-55
2021/07/07 04:03:53;;;;;;;1.27;0.90;;;21.20;69.60;;;;;;10420562;28;20029;-55
2021/07/07 04:08:54;;;;;;;0.80;0.77;;;21.30;69.70;;;;;;10420865;28;20114;-55
2021/07/07 04:13:55;;;;;;;1.23;0.90;;;21.20;69.60;;;;;;10412263;28;20171;-53
2021/07/07 04:18:55;;;;;;;1.25;0.98;;;21.20;69.60;;;;;;10420359;28;20121;-55
2021/07/07 04:23:56;;;;;;;2.92;1.27;;;21.20;69.60;;;;;;10427882;28;20054;-56
2021/07/07 04:28:57;;;;;;;1.58;0.88;;;21.20;69.60;;;;;;10420080;28;20112;-55
2021/07/07 04:33:57;;;;;;;1.95;1.08;;;21.20;69.60;;;;;;10416255;28;20068;-55
2021/07/07 04:38:59;;;;;;;1.73;0.77;;;21.20;69.60;;;;;;10418572;28;20060;-56
2021/07/07 04:44:00;;;;;;;1.27;0.77;;;21.20;69.60;;;;;;10416221;28;20125;-55
2021/07/07 04:49:00;;;;;;;1.05;0.80;;;21.20;69.70;;;;;;10416975;28;20121;-57
2021/07/07 04:54:02;;;;;;;9.40;1.70;;;21.20;69.60;;;;;;10412181;28;20529;-57
2021/07/07 04:59:03;;;;;;;3.38;0.95;;;21.20;69.90;;;;;;10417659;28;20030;-57
2021/07/07 05:04:04;;;;;;;4.75;1.15;;;21.30;70.80;;;;;;10417618;28;20496;-57
2021/07/07 05:09:05;;;;;;;5.28;1.10;;;21.30;70.60;;;;;;10418267;28;20113;-57
2021/07/07 05:14:05;;;;;;;4.05;1.33;;;21.30;70.70;;;;;;10403991;28;20426;-57
2021/07/07 05:19:07;;;;;;;5.07;1.80;;;21.30;70.90;;;;;;10418596;28;20101;-57
2021/07/07 05:24:07;;;;;;;4.80;1.13;;;21.30;70.80;;;;;;10418531;28;20128;-53
2021/07/07 05:29:08;;;;;;;13.93;2.03;;;21.30;70.80;;;;;;10417937;28;20121;-58
2021/07/07 05:34:09;;;;;;;9.93;1.77;;;21.30;71.00;;;;;;10413615;28;20504;-57
2021/07/07 05:39:10;;;;;;;16.77;1.85;;;21.40;71.40;;;;;;10415899;28;20049;-54
2021/07/07 05:44:11;;;;;;;12.95;2.45;;;21.40;71.30;;;;;;10416040;28;20033;-55
2021/07/07 05:49:12;;;;;;;5.57;1.58;;;21.40;71.30;;;;;;10416182;28;20024;-52
2021/07/07 05:54:12;;;;;;;9.73;2.20;;;21.40;71.10;;;;;;10415680;28;20049;-56
2021/07/07 05:59:13;;;;;;;13.60;2.67;;;21.40;71.30;;;;;;10414222;28;20112;-56
2021/07/07 06:04:14;;;;;;;39.67;4.15;;;21.40;71.20;;;;;;10414818;28;20088;-51
2021/07/07 06:09:14;;;;;;;10.93;2.10;;;21.40;71.40;;;;;;10396488;28;20557;-58
2021/07/07 06:14:16;;;;;;;11.68;2.53;;;21.40;71.00;;;;;;10396961;28;20021;-57
2021/07/07 06:19:17;;;;;;;7.20;2.17;;;21.30;70.90;;;;;;10418017;28;20040;-57
2021/07/07 06:24:18;;;;;;;11.70;2.30;;;21.30;70.70;;;;;;10417015;28;20079;-57
2021/07/07 06:29:19;;;;;;;11.60;2.20;;;21.30;70.60;;;;;;10412069;28;20116;-58
2021/07/07 06:34:19;;;;;;;8.65;3.17;;;21.30;70.80;;;;;;10377338;28;20060;-57
2021/07/07 06:39:20;;;;;;;6.10;2.28;;;21.30;70.60;;;;;;10414081;28;20132;-56
2021/07/07 06:44:21;;;;;;;6.60;1.95;;;21.30;70.60;;;;;;10410407;28;20447;-57
2021/07/07 06:49:22;;;;;;;6.10;1.35;;;21.30;70.60;;;;;;10413616;28;20500;-58
2021/07/07 06:54:23;;;;;;;7.60;2.30;;;21.30;70.40;;;;;;10412341;28;20037;-57
2021/07/07 06:59:26;;;;;;;6.55;2.10;;;21.30;70.50;;;;;;10412352;28;20088;-57
2021/07/07 07:04:27;;;;;;;3.42;1.60;;;21.30;70.40;;;;;;10401255;28;20045;-58
2021/07/07 07:09:27;;;;;;;6.55;1.38;;;21.30;70.50;;;;;;10412519;28;20125;-58
2021/07/07 07:14:28;;;;;;;5.65;2.05;;;21.30;70.50;;;;;;10413144;28;20486;-58
2021/07/07 07:19:29;;;;;;;5.95;1.73;;;21.30;70.60;;;;;;10417419;28;20422;-57
2021/07/07 07:24:31;;;;;;;5.82;1.83;;;21.30;70.60;;;;;;10401348;28;20474;-58
2021/07/07 07:29:32;;;;;;;5.40;1.75;;;21.30;70.60;;;;;;10413533;28;20484;-58
2021/07/07 07:34:32;;;;;;;2.38;1.05;;;21.30;70.70;;;;;;10411355;28;20497;-58
2021/07/07 07:39:46;;;;;;;6.15;1.40;;;21.30;70.70;;;;;;10398211;28;20069;-57
2021/07/07 07:44:47;;;;;;;5.90;2.13;;;21.30;70.70;;;;;;10412348;28;20120;-58
2021/07/07 07:49:48;;;;;;;6.78;1.90;;;21.30;70.70;;;;;;10404313;28;20038;-58
2021/07/07 07:54:49;;;;;;;3.67;1.30;;;21.30;70.60;;;;;;10411954;28;20120;-58
2021/07/07 07:59:49;;;;;;;5.38;1.77;;;21.30;70.60;;;;;;10413041;28;20067;-58
2021/07/07 08:04:50;;;;;;;4.88;1.77;;;21.40;71.30;;;;;;10411137;28;20390;-58
2021/07/07 08:09:51;;;;;;;4.00;1.40;;;21.40;70.70;;;;;;10412011;28;20505;-58
2021/07/07 08:14:51;;;;;;;3.03;2.33;;;21.40;70.70;;;;;;10413099;28;20507;-58
2021/07/07 08:19:52;;;;;;;3.80;1.40;;;21.40;70.70;;;;;;10419426;28;20485;-58
2021/07/07 08:24:53;;;;;;;2.45;1.27;;;21.40;70.70;;;;;;10424099;28;20053;-58
2021/07/07 08:29:54;;;;;;;3.67;1.27;;;21.40;70.70;;;;;;10416010;28;20120;-58
2021/07/07 08:34:54;;;;;;;3.38;1.20;;;21.40;70.60;;;;;;10419165;28;20448;-57
2021/07/07 08:39:55;;;;;;;3.10;1.58;;;21.40;70.60;;;;;;10416514;28;20556;-57
2021/07/07 08:44:56;;;;;;;3.65;1.42;;;21.40;70.60;;;;;;10419493;28;20033;-58
2021/07/07 08:49:56;;;;;;;1.35;1.00;;;21.40;70.60;;;;;;10404256;28;20029;-58
2021/07/07 08:54:57;;;;;;;2.25;1.10;;;21.40;70.60;;;;;;10418988;28;20025;-57
2021/07/07 08:59:58;;;;;;;4.05;1.50;;;21.50;70.60;;;;;;10418339;28;20091;-57
2021/07/07 09:05:03;;;;;;;5.10;2.05;;;21.50;70.60;;;;;;10416374;28;20462;-58
2021/07/07 09:10:04;;;;;;;3.17;1.40;;;21.50;70.60;;;;;;10418266;28;20103;-57
2021/07/07 09:15:08;;;;;;;3.00;1.55;;;21.50;70.50;;;;;;10418123;28;20080;-58
2021/07/07 09:20:25;;;;;;;2.85;1.58;;;21.50;70.50;;;;;;10417646;28;20474;-57
2021/07/07 09:25:29;;;;;;;3.75;1.48;;;21.50;70.60;;;;;;10414898;28;20033;-57
2021/07/07 09:30:32;;;;;;;2.67;1.67;;;21.50;70.60;;;;;;10414249;28;20029;-58
2021/07/07 09:35:33;;;;;;;2.10;1.10;;;21.50;70.50;;;;;;10414748;28;20025;-58
2021/07/07 09:40:41;;;;;;;2.25;1.73;;;21.50;70.50;;;;;;10415672;28;20065;-57
2021/07/07 09:45:46;;;;;;;2.10;0.93;;;21.50;70.50;;;;;;10416552;28;20091;-57
2021/07/07 09:50:47;;;;;;;2.03;1.25;;;21.50;70.50;;;;;;10416713;28;20017;-58
2021/07/07 09:55:48;;;;;;;3.92;1.58;;;21.50;70.40;;;;;;10416010;28;20702;-57
2021/07/07 10:00:49;;;;;;;2.75;1.05;;;21.60;70.50;;;;;;10415800;28;20062;-58
2021/07/07 10:05:51;;;;;;;3.83;1.45;;;21.50;70.40;;;;;;10415553;28;20029;-57
2021/07/07 10:10:53;;;;;;;2.50;1.45;;;21.60;70.40;;;;;;10414810;28;20053;-58
2021/07/07 10:15:54;;;;;;;2.20;1.27;;;21.60;70.30;;;;;;10413988;28;20045;-56
2021/07/07 10:20:55;;;;;;;2.83;1.60;;;21.60;70.30;;;;;;10417876;28;20033;-57
2021/07/07 10:25:56;;;;;;;2.72;1.50;;;21.60;70.30;;;;;;10414499;28;20466;-58
2021/07/07 10:31:00;;;;;;;2.22;1.73;;;21.60;70.40;;;;;;10413040;28;20037;-58
2021/07/07 10:36:24;;;;;;;5.07;1.73;;;21.60;70.30;;;;;;10410097;28;20026;-58
2021/07/07 10:41:46;;;;;;;2.85;1.10;;;21.60;70.30;;;;;;10409691;28;20775;-58
2021/07/07 10:46:59;;;;;;;3.40;1.55;;;21.60;70.30;;;;;;10411374;28;20406;-58
2021/07/07 10:52:00;;;;;;;2.58;1.50;;;21.60;70.30;;;;;;10415998;28;20014;-57
2021/07/07 10:57:09;;;;;;;1.90;1.35;;;21.60;70.30;;;;;;10412639;28;20021;-58
2021/07/07 11:02:15;;;;;;;;;;;21.60;70.30;;;;;;10414635;28;20030;-58
2021/07/07 11:07:31;;;;;;;2.75;1.23;;;21.60;70.30;;;;;;10399756;28;19971;-57
2021/07/07 11:12:39;;;;;;;2.35;1.67;;;21.60;70.40;;;;;;10413039;28;20034;-57
2021/07/07 11:17:49;;;;;;;2.23;1.20;;;21.60;70.40;;;;;;10413806;28;20120;-57
2021/07/07 11:23:01;;;;;;;2.22;1.45;;;21.60;70.40;;;;;;10405115;28;20496;-58
2021/07/07 11:28:05;;;;;;;3.63;1.40;;;21.60;70.50;;;;;;10402133;28;20029;-58
2021/07/07 11:33:06;;;;;;;4.38;1.27;;;21.60;70.50;;;;;;10411715;28;20049;-59
2021/07/07 11:38:13;;;;;;;3.85;1.58;;;21.60;70.50;;;;;;10411406;28;20369;-58
2021/07/07 11:43:19;;;;;;;2.10;1.40;;;21.60;70.40;;;;;;10410245;28;20729;-59
2021/07/07 11:48:40;;;;;;;1.33;1.10;;;21.60;70.50;;;;;;10409805;28;20086;-57
2021/07/07 11:53:48;;;;;;;3.22;1.70;;;21.70;70.60;;;;;;10412926;28;20028;-58
2021/07/07 11:59:00;;;;;;;3.28;1.50;;;21.70;70.60;;;;;;10419784;28;20084;-57
2021/07/07 12:04:06;;;;;;;3.80;1.77;;;21.70;70.60;;;;;;10406588;28;20030;-57
2021/07/07 12:09:16;;;;;;;2.45;1.35;;;21.70;70.50;;;;;;10420158;28;20037;-57
2021/07/07 12:14:18;;;;;;;4.85;2.65;;;21.70;70.50;;;;;;10418055;28;20036;-57
2021/07/07 12:19:19;;;;;;;2.70;1.55;;;21.70;70.50;;;;;;10421198;28;20104;-48
2021/07/07 12:24:32;;;;;;;2.72;1.50;;;21.70;70.40;;;;;;10419442;28;20018;-52
2021/07/07 12:29:37;;;;;;;2.25;1.30;;;21.80;70.50;;;;;;10416858;28;20065;-50
2021/07/07 12:34:44;;;;;;;3.83;1.73;;;21.80;70.40;;;;;;10419829;28;20452;-49
2021/07/07 12:39:50;;;;;;;4.35;1.80;;;21.80;70.30;;;;;;10410706;28;20060;-47
2021/07/07 12:45:13;;;;;;;4.03;1.65;;;21.80;70.30;;;;;;10414854;28;20112;-49
2021/07/07 12:50:22;;;;;;;9.48;2.65;;;21.80;70.30;;;;;;10417527;28;20021;-51
2021/07/07 12:55:26;;;;;;;7.50;1.43;;;21.90;70.40;;;;;;10415814;28;20033;-50
2021/07/07 13:00:39;;;;;;;7.70;2.08;;;21.90;70.40;;;;;;10415874;28;20546;-50
2021/07/07 13:05:54;;;;;;;3.33;1.70;;;21.90;70.40;;;;;;10416650;28;20052;-48
2021/07/07 13:10:55;;;;;;;6.85;3.05;;;21.90;70.30;;;;;;10416796;28;20029;-50
2021/07/07 13:16:14;;;;;;;4.50;2.28;;;21.90;70.30;;;;;;10407069;28;20036;-50
2021/07/07 13:21:15;;;;;;;7.55;1.77;;;21.80;70.20;;;;;;10424164;28;20456;-49
2021/07/07 13:26:27;;;;;;;4.13;2.20;;;21.90;70.30;;;;;;10417153;28;20116;-53
2021/07/07 13:31:27;;;;;;;3.35;1.63;;;21.90;70.30;;;;;;10414172;28;20029;-51
2021/07/07 13:36:28;;;;;;;2.67;1.70;;;21.90;70.40;;;;;;10417571;28;20100;-50
2021/07/07 13:41:28;;;;;;;3.40;1.75;;;21.90;70.90;;;;;;10402620;28;20133;-49
2021/07/07 13:46:31;;;;;;;4.07;2.03;;;21.90;70.30;;;;;;10416841;28;20112;-51
2021/07/07 13:51:32;;;;;;;2.97;1.50;;;21.90;70.30;;;;;;10416347;28;20033;-53
2021/07/07 13:56:32;;;;;;;2.38;2.00;;;21.90;70.20;;;;;;10416519;28;20030;-52
2021/07/07 14:01:33;;;;;;;4.15;1.92;;;21.90;70.20;;;;;;10403515;28;20465;-48
2021/07/07 14:06:35;;;;;;;2.83;1.77;;;21.90;70.20;;;;;;10415914;28;20073;-50
2021/07/07 14:11:36;;;;;;;4.15;2.53;;;21.90;70.20;;;;;;10414134;28;20394;-50
2021/07/07 14:16:37;;;;;;;6.50;2.63;;;21.90;70.20;;;;;;10414433;28;20043;-51
2021/07/07 14:21:38;;;;;;;2.95;1.88;;;21.90;70.20;;;;;;10418663;28;20058;-49
2021/07/07 14:26:39;;;;;;;3.30;2.13;;;21.90;70.20;;;;;;10415222;28;20049;-51
2021/07/07 14:31:39;;;;;;;3.45;1.88;;;21.90;70.20;;;;;;10412864;28;20532;-49
2021/07/07 14:36:40;;;;;;;5.63;2.03;;;21.90;70.10;;;;;;10414939;28;20120;-48
2021/07/07 14:41:41;;;;;;;2.92;1.75;;;21.90;70.10;;;;;;10408644;28;20091;-50
2021/07/07 14:46:42;;;;;;;3.17;1.65;;;21.80;70.10;;;;;;10414538;28;20041;-49
2021/07/07 14:51:44;;;;;;;3.45;2.00;;;21.90;70.00;;;;;;10409641;28;20468;-46
2021/07/07 14:56:45;;;;;;;4.00;2.10;;;21.90;70.10;;;;;;10412657;28;20029;-46
2021/07/07 15:01:51;;;;;;;3.17;1.73;;;21.80;70.00;;;;;;10413221;28;20553;-46
2021/07/07 15:06:52;;;;;;;4.25;2.45;;;21.80;70.00;;;;;;10413464;28;20045;-54
2021/07/07 15:11:52;;;;;;;4.78;2.15;;;21.90;70.10;;;;;;10403927;28;20460;-48
2021/07/07 15:16:53;;;;;;;3.47;2.40;;;21.80;70.00;;;;;;10397616;28;20050;-53
2021/07/07 15:21:56;;;;;;;2.60;2.13;;;21.90;70.00;;;;;;10405363;28;20026;-52
2021/07/07 15:26:57;;;;;;;4.78;2.40;;;21.90;70.00;;;;;;10403133;28;20430;-48
2021/07/07 15:31:58;;;;;;;5.28;2.10;;;21.90;69.60;;;;;;10406914;28;20401;-47
2021/07/07 15:36:59;;;;;;;17.20;4.10;;;21.90;68.90;;;;;;10413625;28;20030;-52
2021/07/07 15:42:00;;;;;;;26.23;5.35;;;21.90;68.80;;;;;;10412834;28;20042;-52
2021/07/07 15:47:00;;;;;;;23.63;4.15;;;21.80;68.80;;;;;;10410643;28;20037;-47
2021/07/07 15:52:02;;;;;;;27.45;6.22;;;21.90;68.70;;;;;;10410609;28;20129;-46
2021/07/07 15:57:04;;;;;;;20.45;6.05;;;21.90;69.00;;;;;;10413011;28;20378;-48
2021/07/07 16:02:04;;;;;;;16.92;4.72;;;21.90;68.00;;;;;;10412042;28;20038;-46
2021/07/07 16:07:05;;;;;;;17.55;5.72;;;21.90;67.70;;;;;;10420286;28;20035;-45
2021/07/07 16:12:06;;;;;;;80.43;72.78;;;21.90;68.10;;;;;;10420243;28;20044;-48
2021/07/07 16:17:08;;;;;;;26.27;18.13;;;21.90;68.10;;;;;;10420079;28;20033;-47
2021/07/07 16:22:09;;;;;;;18.02;7.93;;;22.00;67.80;;;;;;10430194;28;20540;-50
2021/07/07 16:27:10;;;;;;;13.85;7.10;;;22.00;67.50;;;;;;10418525;28;20108;-47
2021/07/07 16:32:10;;;;;;;11.02;6.40;;;22.00;67.20;;;;;;10419956;28;20394;-50
2021/07/07 16:37:11;;;;;;;12.55;5.25;;;22.00;67.00;;;;;;10417083;28;20037;-47
2021/07/07 16:42:12;;;;;;;12.77;6.32;;;22.00;66.80;;;;;;10408247;28;20077;-50
2021/07/07 16:47:13;;;;;;;9.88;5.40;;;22.00;66.60;;;;;;10418442;28;20064;-48
2021/07/07 16:52:13;;;;;;;12.45;5.65;;;21.90;67.00;;;;;;10418235;28;20034;-52
2021/07/07 16:57:16;;;;;;;11.90;4.78;;;22.00;67.30;;;;;;10417754;28;20043;-49
2021/07/07 17:02:17;;;;;;;11.48;4.93;;;22.00;67.10;;;;;;10417213;28;20040;-52
2021/07/07 17:07:18;;;;;;;7.45;4.30;;;22.00;67.30;;;;;;10416834;28;20057;-52
2021/07/07 17:12:18;;;;;;;9.02;4.47;;;22.00;67.50;;;;;;10417740;28;20479;-50
2021/07/07 17:17:19;;;;;;;5.70;3.90;;;22.00;67.50;;;;;;10417715;28;20025;-49
2021/07/07 17:22:20;;;;;;;9.45;4.53;;;22.00;67.60;;;;;;10424987;28;20116;-52
2021/07/07 17:27:20;;;;;;;8.40;4.32;;;22.00;67.70;;;;;;10417676;28;20109;-50
2021/07/07 17:32:21;;;;;;;8.93;3.83;;;22.00;67.70;;;;;;10414123;28;20390;-48
2021/07/07 17:37:22;;;;;;;8.13;4.13;;;22.00;68.00;;;;;;10414768;28;20462;-52
2021/07/07 17:42:22;;;;;;;9.85;3.70;;;22.00;68.40;;;;;;10415305;28;20041;-49
2021/07/07 17:47:23;;;;;;;8.18;4.13;;;22.00;68.60;;;;;;10413323;28;20447;-50
2021/07/07 17:52:24;;;;;;;9.00;4.70;;;22.00;68.80;;;;;;10416389;28;20547;-52
2021/07/07 17:57:24;;;;;;;11.15;4.28;;;22.00;68.70;;;;;;10415401;28;20033;-47
2021/07/07 18:02:26;;;;;;;8.05;4.00;;;22.10;68.90;;;;;;10416216;28;20056;-50
2021/07/07 18:07:27;;;;;;;9.00;4.00;;;22.10;69.50;;;;;;10415205;28;20033;-48
2021/07/07 18:12:27;;;;;;;6.65;3.70;;;22.10;68.90;;;;;;10411396;28;20121;-51
2021/07/07 18:17:28;;;;;;;8.07;4.05;;;22.10;68.90;;;;;;10414616;28;20455;-48
2021/07/07 18:22:29;;;;;;;7.70;4.07;;;22.00;68.70;;;;;;10417054;28;20079;-52
2021/07/07 18:27:30;;;;;;;6.47;4.45;;;22.10;68.80;;;;;;10414838;28;20053;-49
2021/07/07 18:32:30;;;;;;;6.18;3.80;;;22.10;68.70;;;;;;10394894;28;20072;-50
2021/07/07 18:37:31;;;;;;;5.43;4.03;;;22.00;68.70;;;;;;10412696;28;20031;-49
2021/07/07 18:42:32;;;;;;;10.93;4.70;;;22.10;68.80;;;;;;10413725;28;20053;-51
2021/07/07 18:47:33;;;;;;;6.75;3.55;;;22.10;68.70;;;;;;10413611;28;20034;-48
2021/07/07 18:52:35;;;;;;;5.22;4.32;;;22.00;68.80;;;;;;10411101;28;20034;-48
2021/07/07 18:57:42;;;;;;;6.55;4.00;;;22.10;69.20;;;;;;10414634;28;20036;-49
2021/07/07 19:02:43;;;;;;;8.85;4.43;;;22.10;69.50;;;;;;10401522;28;20033;-47
2021/07/07 19:07:49;;;;;;;4.95;3.63;;;22.10;69.60;;;;;;10412998;28;20030;-48
2021/07/07 19:12:50;;;;;;;6.97;4.25;;;22.10;69.60;;;;;;10411903;28;20083;-48
2021/07/07 19:17:50;;;;;;;7.75;4.57;;;22.10;69.70;;;;;;10413018;28;20116;-48
2021/07/07 19:22:53;;;;;;;6.32;3.92;;;22.10;69.70;;;;;;10403585;28;20052;-48
2021/07/07 19:27:54;;;;;;;7.63;4.30;;;22.10;69.80;;;;;;10411680;28;20069;-47
2021/07/07 19:32:55;;;;;;;9.63;5.03;;;22.10;69.80;;;;;;10411483;28;20026;-49
2021/07/07 19:37:56;;;;;;;7.13;4.68;;;22.10;69.90;;;;;;10411608;28;20030;-47
2021/07/07 19:42:58;;;;;;;7.43;3.90;;;22.10;69.90;;;;;;10412213;28;20049;-50
2021/07/07 19:47:59;;;;;;;6.88;3.53;;;22.10;69.80;;;;;;10412910;28;20068;-48
2021/07/07 19:53:00;;;;;;;5.93;4.30;;;22.10;69.80;;;;;;10411661;28;20032;-49
2021/07/07 19:58:01;;;;;;;6.18;4.18;;;22.10;69.70;;;;;;10411178;28;20032;-49
2021/07/07 20:03:01;;;;;;;4.75;4.05;;;22.10;69.70;;;;;;10411963;28;20024;-47
2021/07/07 20:08:03;;;;;;;4.25;3.63;;;22.10;69.70;;;;;;10411809;28;20095;-49
2021/07/07 20:13:07;;;;;;;5.00;4.28;;;22.10;69.70;;;;;;10411291;28;20038;-49
2021/07/07 20:18:08;;;;;;;4.35;3.95;;;22.10;69.70;;;;;;10415346;28;20029;-48
2021/07/07 20:23:08;;;;;;;4.30;3.70;;;22.10;69.70;;;;;;10422129;28;20025;-48
2021/07/07 20:28:09;;;;;;;5.35;4.22;;;22.10;69.70;;;;;;10419587;28;20060;-52
2021/07/07 20:33:10;;;;;;;5.72;4.20;;;22.10;69.70;;;;;;10420239;28;20547;-49
2021/07/07 20:38:11;;;;;;;4.63;3.88;;;22.10;69.60;;;;;;10419244;28;20030;-50
2021/07/07 20:43:12;;;;;;;4.78;3.95;;;22.10;69.70;;;;;;10419747;28;20050;-48
2021/07/07 20:48:13;;;;;;;4.82;4.30;;;22.10;69.70;;;;;;10419350;28;20034;-47
2021/07/07 20:53:14;;;;;;;4.53;3.58;;;22.10;69.70;;;;;;10419276;28;20449;-47
2021/07/07 20:58:15;;;;;;;4.82;3.65;;;22.10;69.70;;;;;;10418959;28;20111;-51
2021/07/07 21:03:15;;;;;;;3.90;3.50;;;22.10;69.60;;;;;;10419266;28;20552;-47
2021/07/07 21:08:16;;;;;;;5.07;4.22;;;22.10;69.60;;;;;;10413543;28;20038;-49
2021/07/07 21:13:17;;;;;;;5.03;3.28;;;22.10;69.50;;;;;;10418672;28;20049;-48
2021/07/07 21:18:17;;;;;;;4.95;4.18;;;22.10;69.50;;;;;;10410303;28;20076;-47
2021/07/07 21:23:18;;;;;;;4.63;3.78;;;22.10;69.50;;;;;;10425559;28;20037;-47
2021/07/07 21:28:19;;;;;;;5.15;3.45;;;22.10;69.40;;;;;;10416753;28;20367;-50
2021/07/07 21:33:19;;;;;;;4.68;3.72;;;22.10;69.40;;;;;;10412600;28;20113;-46
2021/07/07 21:38:21;;;;;;;4.47;4.03;;;22.10;69.40;;;;;;10417081;28;20025;-47
2021/07/07 21:43:22;;;;;;;5.65;3.80;;;22.00;69.30;;;;;;10417392;28;20081;-49
2021/07/07 21:48:23;;;;;;;6.35;4.35;;;22.10;69.30;;;;;;10415444;28;20124;-51
2021/07/07 21:53:26;;;;;;;4.18;3.58;;;22.00;69.30;;;;;;10416990;28;20022;-47
2021/07/07 21:58:26;;;;;;;4.20;3.80;;;22.10;69.30;;;;;;10416447;28;20091;-47
2021/07/07 22:03:27;;;;;;;5.55;4.13;;;22.00;69.30;;;;;;10415941;28;20069;-47
2021/07/07 22:08:28;;;;;;;6.38;4.13;;;22.00;69.30;;;;;;10416559;28;20060;-50
2021/07/07 22:13:29;;;;;;;5.45;4.90;;;22.00;69.30;;;;;;10415109;28;20361;-46
2021/07/07 22:18:30;;;;;;;3.80;3.40;;;22.00;69.20;;;;;;10416201;28;20104;-47
2021/07/07 22:23:31;;;;;;;6.10;4.55;;;22.00;69.30;;;;;;10420990;28;20537;-47
2021/07/07 22:28:32;;;;;;;4.38;3.97;;;22.00;69.20;;;;;;10414455;28;20037;-49
2021/07/07 22:33:32;;;;;;;4.60;3.55;;;22.00;69.20;;;;;;10414014;28;20430;-46
2021/07/07 22:38:33;;;;;;;4.45;3.67;;;22.00;69.20;;;;;;10415316;28;20044;-50
2021/07/07 22:43:37;;;;;;;4.32;3.92;;;22.00;69.10;;;;;;10414742;28;20120;-48
2021/07/07 22:48:40;;;;;;;5.28;4.10;;;22.00;69.10;;;;;;10415199;28;20532;-51
2021/07/07 22:53:42;;;;;;;4.13;3.03;;;22.00;69.10;;;;;;10414347;28;20026;-46
2021/07/07 22:58:43;;;;;;;5.45;3.92;;;22.00;69.10;;;;;;10414513;28;20038;-51
2021/07/07 23:03:43;;;;;;;3.85;3.55;;;22.00;69.20;;;;;;10414627;28;20099;-46
2021/07/07 23:08:44;;;;;;;5.13;3.58;;;22.00;69.20;;;;;;10399644;28;20478;-48
2021/07/07 23:13:45;;;;;;;4.40;3.67;;;22.00;69.10;;;;;;10414389;28;20056;-46
2021/07/07 23:18:45;;;;;;;4.75;4.05;;;22.00;69.10;;;;;;10414075;28;20049;-47
2021/07/07 23:23:46;;;;;;;4.22;3.70;;;22.00;69.10;;;;;;10422726;28;20574;-51
2021/07/07 23:28:47;;;;;;;4.15;3.60;;;22.00;69.10;;;;;;10413241;28;20645;-47
2021/07/07 23:33:48;;;;;;;5.20;4.10;;;22.00;69.00;;;;;;10414098;28;20068;-46
2021/07/07 23:38:48;;;;;;;6.07;4.07;;;22.00;69.10;;;;;;10400468;28;20026;-47
2021/07/07 23:43:49;;;;;;;5.00;3.95;;;22.00;69.10;;;;;;10413135;28;20045;-47
2021/07/07 23:48:49;;;;;;;4.00;3.55;;;22.00;69.00;;;;;;10412687;28;20125;-49
2021/07/07 23:53:50;;;;;;;4.68;3.97;;;22.00;69.00;;;;;;10419165;28;20057;-47
2021/07/07 23:58:51;;;;;;;4.65;3.85;;;22.00;69.00;;;;;;10415939;28;20056;-48
